sensor_id;sensor_type;location;lat;lon;timestamp;pressure;altitude;pressure_sealevel;temperature;humidity
64253;BME280;50592;52.958;-7.470;2023-07-31T00:00:29;99212.53;;;16.23;100.00
64253;BME280;50592;52.958;-7.470;2023-07-31T00:02:55;99223.03;;;16.18;100.00
64253;BME280;50592;52.958;-7.470;2023-07-31T00:05:21;99221.59;;;16.15;100.00
64253;BME280;50592;52.958;-7.470;2023-07-31T00:07:47;99214.03;;;16.12;100.00
64253;BME280;50592;52.958;-7.470;2023-07-31T00:10:12;99204.84;;;16.08;100.00
64253;BME280;50592;52.958;-7.470;2023-07-31T00:12:43;99196.63;;;16.09;100.00
64253;BME280;50592;52.958;-7.470;2023-07-31T00:15:09;99193.75;;;16.04;100.00
64253;BME280;50592;52.958;-7.470;2023-07-31T00:17:36;99181.69;;;16.02;100.00
64253;BME280;50592;52.958;-7.470;2023-07-31T00:20:02;99182.72;;;16.01;100.00
64253;BME280;50592;52.958;-7.470;2023-07-31T00:22:28;99185.56;;;15.99;100.00
64253;BME280;50592;52.958;-7.470;2023-07-31T00:24:55;99189.06;;;15.99;100.00
64253;BME280;50592;52.958;-7.470;2023-07-31T00:27:21;99182.53;;;16.02;100.00
64253;BME280;50592;52.958;-7.470;2023-07-31T00:29:47;99187.63;;;16.04;100.00
64253;BME280;50592;52.958;-7.470;2023-07-31T00:32:13;99189.47;;;16.03;100.00
64253;BME280;50592;52.958;-7.470;2023-07-31T00:34:39;99185.78;;;16.04;100.00
64253;BME280;50592;52.958;-7.470;2023-07-31T00:37:05;99187.22;;;16.07;100.00
64253;BME280;50592;52.958;-7.470;2023-07-31T00:39:31;99184.75;;;16.05;100.00
64253;BME280;50592;52.958;-7.470;2023-07-31T00:41:59;99179.22;;;16.07;100.00
64253;BME280;50592;52.958;-7.470;2023-07-31T00:44:25;99181.88;;;16.07;100.00
64253;BME280;50592;52.958;-7.470;2023-07-31T00:46:53;99180.41;;;16.11;100.00
64253;BME280;50592;52.958;-7.470;2023-07-31T00:49:21;99175.69;;;16.13;100.00
64253;BME280;50592;52.958;-7.470;2023-07-31T00:51:48;99182.03;;;16.12;100.00
64253;BME280;50592;52.958;-7.470;2023-07-31T00:54:15;99181.84;;;16.14;100.00
64253;BME280;50592;52.958;-7.470;2023-07-31T00:56:41;99183.69;;;16.13;100.00
64253;BME280;50592;52.958;-7.470;2023-07-31T00:59:07;99179.78;;;16.16;100.00
64253;BME280;50592;52.958;-7.470;2023-07-31T01:01:33;99172.63;;;16.16;100.00
64253;BME280;50592;52.958;-7.470;2023-07-31T01:03:59;99170.75;;;16.17;100.00
64253;BME280;50592;52.958;-7.470;2023-07-31T01:09:02;99168.91;;;16.17;100.00
64253;BME280;50592;52.958;-7.470;2023-07-31T01:11:30;99173.63;;;16.15;100.00
64253;BME280;50592;52.958;-7.470;2023-07-31T01:13:57;99180.81;;;16.15;100.00
64253;BME280;50592;52.958;-7.470;2023-07-31T01:16:25;99170.75;;;16.17;100.00
64253;BME280;50592;52.958;-7.470;2023-07-31T01:18:52;99184.06;;;16.17;100.00
64253;BME280;50592;52.958;-7.470;2023-07-31T01:24:22;99177.50;;;16.19;100.00
64253;BME280;50592;52.958;-7.470;2023-07-31T01:27:04;99178.75;;;16.17;100.00
64253;BME280;50592;52.958;-7.470;2023-07-31T01:29:38;99186.16;;;16.15;100.00
64253;BME280;50592;52.958;-7.470;2023-07-31T01:32:10;99175.69;;;16.13;100.00
64253;BME280;50592;52.958;-7.470;2023-07-31T01:34:37;99178.78;;;16.10;100.00
64253;BME280;50592;52.958;-7.470;2023-07-31T01:37:04;99173.06;;;16.06;100.00
64253;BME280;50592;52.958;-7.470;2023-07-31T01:39:30;99180.44;;;16.04;100.00
64253;BME280;50592;52.958;-7.470;2023-07-31T01:41:56;99182.53;;;16.02;100.00
64253;BME280;50592;52.958;-7.470;2023-07-31T01:44:22;99177.78;;;15.97;100.00
64253;BME280;50592;52.958;-7.470;2023-07-31T01:46:48;99189.69;;;15.95;100.00
64253;BME280;50592;52.958;-7.470;2023-07-31T01:49:14;99176.78;;;15.92;100.00
64253;BME280;50592;52.958;-7.470;2023-07-31T01:51:40;99171.66;;;15.90;100.00
64253;BME280;50592;52.958;-7.470;2023-07-31T01:54:07;99163.44;;;15.92;100.00
64253;BME280;50592;52.958;-7.470;2023-07-31T01:56:33;99158.94;;;15.92;100.00
64253;BME280;50592;52.958;-7.470;2023-07-31T01:58:59;99170.81;;;15.96;100.00
64253;BME280;50592;52.958;-7.470;2023-07-31T02:01:25;99164.47;;;15.97;100.00
64253;BME280;50592;52.958;-7.470;2023-07-31T02:03:50;99167.53;;;15.94;100.00
64253;BME280;50592;52.958;-7.470;2023-07-31T02:06:16;99167.53;;;15.94;100.00
64253;BME280;50592;52.958;-7.470;2023-07-31T02:08:42;99180.84;;;15.94;100.00
64253;BME280;50592;52.958;-7.470;2023-07-31T02:11:08;99177.19;;;15.95;100.00
64253;BME280;50592;52.958;-7.470;2023-07-31T02:13:34;99165.69;;;15.95;100.00
64253;BME280;50592;52.958;-7.470;2023-07-31T02:16:00;99178.81;;;15.96;100.00
64253;BME280;50592;52.958;-7.470;2023-07-31T02:18:26;99176.13;;;15.96;100.00
64253;BME280;50592;52.958;-7.470;2023-07-31T02:20:52;99179.03;;;15.95;100.00
64253;BME280;50592;52.958;-7.470;2023-07-31T02:23:19;99179.84;;;15.95;100.00
64253;BME280;50592;52.958;-7.470;2023-07-31T02:25:45;99176.13;;;15.96;100.00
64253;BME280;50592;52.958;-7.470;2023-07-31T02:28:11;99169.81;;;15.97;100.00
64253;BME280;50592;52.958;-7.470;2023-07-31T02:30:37;99165.47;;;15.96;100.00
64253;BME280;50592;52.958;-7.470;2023-07-31T02:33:04;99160.38;;;15.95;100.00
64253;BME280;50592;52.958;-7.470;2023-07-31T02:35:30;99166.94;;;15.92;100.00
64253;BME280;50592;52.958;-7.470;2023-07-31T02:37:56;99160.16;;;15.90;100.00
64253;BME280;50592;52.958;-7.470;2023-07-31T02:40:21;99153.44;;;15.87;100.00
64253;BME280;50592;52.958;-7.470;2023-07-31T02:42:47;99155.88;;;15.88;100.00
64253;BME280;50592;52.958;-7.470;2023-07-31T02:45:14;99163.06;;;15.88;100.00
64253;BME280;50592;52.958;-7.470;2023-07-31T02:47:40;99157.34;;;15.84;100.00
64253;BME280;50592;52.958;-7.470;2023-07-31T02:50:06;99162.06;;;15.82;100.00
64253;BME280;50592;52.958;-7.470;2023-07-31T02:52:32;99165.56;;;15.83;100.00
64253;BME280;50592;52.958;-7.470;2023-07-31T02:54:58;99157.97;;;15.80;100.00
64253;BME280;50592;52.958;-7.470;2023-07-31T02:57:24;99166.56;;;15.82;100.00
64253;BME280;50592;52.958;-7.470;2023-07-31T02:59:50;99159.59;;;15.81;100.00
64253;BME280;50592;52.958;-7.470;2023-07-31T03:02:16;99158.19;;;15.78;100.00
64253;BME280;50592;52.958;-7.470;2023-07-31T03:04:41;99153.66;;;15.79;100.00
64253;BME280;50592;52.958;-7.470;2023-07-31T03:07:07;99149.59;;;15.76;100.00
64253;BME280;50592;52.958;-7.470;2023-07-31T03:09:33;99139.13;;;15.74;100.00
64253;BME280;50592;52.958;-7.470;2023-07-31T03:11:59;99133.19;;;15.79;100.00
64253;BME280;50592;52.958;-7.470;2023-07-31T03:14:25;99120.06;;;15.78;100.00
64253;BME280;50592;52.958;-7.470;2023-07-31T03:16:54;99117.63;;;15.76;100.00
64253;BME280;50592;52.958;-7.470;2023-07-31T03:19:20;99123.56;;;15.78;100.00
64253;BME280;50592;52.958;-7.470;2023-07-31T03:21:46;99113.69;;;15.79;100.00
64253;BME280;50592;52.958;-7.470;2023-07-31T03:24:11;99116.97;;;15.81;100.00
64253;BME280;50592;52.958;-7.470;2023-07-31T03:26:40;99108.38;;;15.79;100.00
64253;BME280;50592;52.958;-7.470;2023-07-31T03:29:07;99091.59;;;15.78;100.00
64253;BME280;50592;52.958;-7.470;2023-07-31T03:31:33;99087.47;;;15.75;100.00
64253;BME280;50592;52.958;-7.470;2023-07-31T03:33:59;99094.69;;;15.75;100.00
64253;BME280;50592;52.958;-7.470;2023-07-31T03:36:26;99103.69;;;15.74;100.00
64253;BME280;50592;52.958;-7.470;2023-07-31T03:38:53;99120.69;;;15.73;100.00
64253;BME280;50592;52.958;-7.470;2023-07-31T03:41:18;99119.66;;;15.74;100.00
64253;BME280;50592;52.958;-7.470;2023-07-31T03:43:47;99108.22;;;15.73;100.00
64253;BME280;50592;52.958;-7.470;2023-07-31T03:46:13;99119.03;;;15.72;100.00
64253;BME280;50592;52.958;-7.470;2023-07-31T03:48:39;99113.94;;;15.70;100.00
64253;BME280;50592;52.958;-7.470;2023-07-31T03:51:05;99118.06;;;15.66;100.00
64253;BME280;50592;52.958;-7.470;2023-07-31T03:53:31;99099.63;;;15.65;100.00
64253;BME280;50592;52.958;-7.470;2023-07-31T03:55:56;99092.47;;;15.65;100.00
64253;BME280;50592;52.958;-7.470;2023-07-31T03:58:22;99106.56;;;15.66;100.00
64253;BME280;50592;52.958;-7.470;2023-07-31T04:00:48;99108.88;;;15.62;100.00
64253;BME280;50592;52.958;-7.470;2023-07-31T04:03:14;99099.00;;;15.62;100.00
64253;BME280;50592;52.958;-7.470;2023-07-31T04:05:40;99104.75;;;15.59;100.00
64253;BME280;50592;52.958;-7.470;2023-07-31T04:08:06;99118.28;;;15.58;100.00
64253;BME280;50592;52.958;-7.470;2023-07-31T04:10:32;99110.28;;;15.58;100.00
64253;BME280;50592;52.958;-7.470;2023-07-31T04:12:59;99115.63;;;15.58;100.00
64253;BME280;50592;52.958;-7.470;2023-07-31T04:15:28;99110.50;;;15.56;100.00
64253;BME280;50592;52.958;-7.470;2023-07-31T04:17:54;99120.16;;;15.57;100.00
64253;BME280;50592;52.958;-7.470;2023-07-31T04:20:19;99125.69;;;15.56;100.00
64253;BME280;50592;52.958;-7.470;2023-07-31T04:22:45;99132.03;;;15.55;100.00
64253;BME280;50592;52.958;-7.470;2023-07-31T04:25:11;99133.69;;;15.56;100.00
64253;BME280;50592;52.958;-7.470;2023-07-31T04:27:36;99141.03;;;15.54;100.00
64253;BME280;50592;52.958;-7.470;2023-07-31T04:30:03;99147.00;;;15.56;100.00
64253;BME280;50592;52.958;-7.470;2023-07-31T04:32:29;99166.63;;;15.55;100.00
64253;BME280;50592;52.958;-7.470;2023-07-31T04:34:55;99159.91;;;15.52;100.00
64253;BME280;50592;52.958;-7.470;2023-07-31T04:37:21;99160.72;;;15.53;100.00
64253;BME280;50592;52.958;-7.470;2023-07-31T04:39:47;99157.25;;;15.52;100.00
64253;BME280;50592;52.958;-7.470;2023-07-31T04:42:12;99170.75;;;15.50;100.00
64253;BME280;50592;52.958;-7.470;2023-07-31T04:44:38;99171.59;;;15.51;100.00
64253;BME280;50592;52.958;-7.470;2023-07-31T04:47:04;99159.69;;;15.54;100.00
64253;BME280;50592;52.958;-7.470;2023-07-31T04:49:32;99180.56;;;15.57;100.00
64253;BME280;50592;52.958;-7.470;2023-07-31T04:51:58;99175.88;;;15.52;100.00
64253;BME280;50592;52.958;-7.470;2023-07-31T04:54:23;99170.75;;;15.50;100.00
64253;BME280;50592;52.958;-7.470;2023-07-31T04:56:49;99160.72;;;15.53;100.00
64253;BME280;50592;52.958;-7.470;2023-07-31T04:59:15;99168.94;;;15.51;100.00
64253;BME280;50592;52.958;-7.470;2023-07-31T05:01:41;99148.41;;;15.52;100.00
64253;BME280;50592;52.958;-7.470;2023-07-31T05:04:06;99149.66;;;15.49;100.00
64253;BME280;50592;52.958;-7.470;2023-07-31T05:06:32;99151.50;;;15.48;100.00
64253;BME280;50592;52.958;-7.470;2023-07-31T05:08:58;99147.22;;;15.47;100.00
64253;BME280;50592;52.958;-7.470;2023-07-31T05:11:24;99141.88;;;15.47;100.00
64253;BME280;50592;52.958;-7.470;2023-07-31T05:13:50;99140.25;;;15.46;100.00
64253;BME280;50592;52.958;-7.470;2023-07-31T05:16:15;99140.47;;;15.45;100.00
64253;BME280;50592;52.958;-7.470;2023-07-31T05:18:41;99138.41;;;15.47;100.00
64253;BME280;50592;52.958;-7.470;2023-07-31T05:21:07;99133.06;;;15.47;100.00
64253;BME280;50592;52.958;-7.470;2023-07-31T05:23:33;99138.41;;;15.47;100.00
64253;BME280;50592;52.958;-7.470;2023-07-31T05:26:04;99134.94;;;15.46;100.00
64253;BME280;50592;52.958;-7.470;2023-07-31T05:28:30;99126.53;;;15.43;100.00
64253;BME280;50592;52.958;-7.470;2023-07-31T05:31:03;99131.44;;;15.39;100.00
64253;BME280;50592;52.958;-7.470;2023-07-31T05:33:29;99124.31;;;15.33;100.00
64253;BME280;50592;52.958;-7.470;2023-07-31T05:35:55;99131.28;;;15.27;100.00
64253;BME280;50592;52.958;-7.470;2023-07-31T05:38:21;99141.94;;;15.20;100.00
64253;BME280;50592;52.958;-7.470;2023-07-31T05:40:47;99143.19;;;15.18;100.00
64253;BME280;50592;52.958;-7.470;2023-07-31T05:43:13;99114.72;;;15.11;100.00
64253;BME280;50592;52.958;-7.470;2023-07-31T05:45:39;99122.69;;;15.11;100.00
64253;BME280;50592;52.958;-7.470;2023-07-31T05:48:05;99124.34;;;15.12;100.00
64253;BME280;50592;52.958;-7.470;2023-07-31T05:50:31;99131.72;;;15.10;100.00
64253;BME280;50592;52.958;-7.470;2023-07-31T05:52:57;99142.34;;;15.04;100.00
64253;BME280;50592;52.958;-7.470;2023-07-31T05:55:24;99142.34;;;15.04;100.00
64253;BME280;50592;52.958;-7.470;2023-07-31T05:57:52;99145.22;;;15.02;100.00
64253;BME280;50592;52.958;-7.470;2023-07-31T06:00:18;99144.63;;;15.00;100.00
64253;BME280;50592;52.958;-7.470;2023-07-31T06:02:44;99147.28;;;15.00;100.00
64253;BME280;50592;52.958;-7.470;2023-07-31T06:05:10;99142.97;;;14.99;100.00
64253;BME280;50592;52.958;-7.470;2023-07-31T06:07:36;99142.56;;;15.02;100.00
64253;BME280;50592;52.958;-7.470;2023-07-31T06:10:02;99146.69;;;15.05;100.00
64253;BME280;50592;52.958;-7.470;2023-07-31T06:12:33;99141.34;;;15.05;100.00
64253;BME280;50592;52.958;-7.470;2023-07-31T06:14:58;99153.00;;;15.04;100.00
64253;BME280;50592;52.958;-7.470;2023-07-31T06:17:24;99150.34;;;15.04;100.00
64253;BME280;50592;52.958;-7.470;2023-07-31T06:19:51;99150.13;;;15.05;100.00
64253;BME280;50592;52.958;-7.470;2023-07-31T06:22:17;99138.47;;;15.06;100.00
64253;BME280;50592;52.958;-7.470;2023-07-31T06:24:44;99135.19;;;15.04;100.00
64253;BME280;50592;52.958;-7.470;2023-07-31T06:27:10;99144.00;;;15.05;100.00
64253;BME280;50592;52.958;-7.470;2023-07-31T06:29:36;99142.56;;;15.02;100.00
64253;BME280;50592;52.958;-7.470;2023-07-31T06:32:02;99148.50;;;14.97;100.00
64253;BME280;50592;52.958;-7.470;2023-07-31T06:34:28;99137.47;;;14.94;100.00
64253;BME280;50592;52.958;-7.470;2023-07-31T06:36:58;99146.25;;;14.94;100.00
64253;BME280;50592;52.958;-7.470;2023-07-31T06:39:23;99146.88;;;14.90;100.00
64253;BME280;50592;52.958;-7.470;2023-07-31T06:41:49;99144.00;;;14.84;100.00
64253;BME280;50592;52.958;-7.470;2023-07-31T06:44:15;99122.91;;;14.83;100.00
64253;BME280;50592;52.958;-7.470;2023-07-31T06:46:42;99143.41;;;14.82;100.00
64253;BME280;50592;52.958;-7.470;2023-07-31T06:49:08;99133.78;;;14.81;100.00
64253;BME280;50592;52.958;-7.470;2023-07-31T06:51:34;99133.56;;;14.83;100.00
64253;BME280;50592;52.958;-7.470;2023-07-31T06:54:01;99151.19;;;14.84;100.00
64253;BME280;50592;52.958;-7.470;2023-07-31T06:56:27;99151.97;;;14.84;100.00
64253;BME280;50592;52.958;-7.470;2023-07-31T06:58:53;99143.78;;;14.86;100.00
64253;BME280;50592;52.958;-7.470;2023-07-31T07:01:18;99149.72;;;14.88;100.00
64253;BME280;50592;52.958;-7.470;2023-07-31T07:03:44;99138.25;;;14.87;100.00
64253;BME280;50592;52.958;-7.470;2023-07-31T07:06:10;99129.50;;;14.87;100.00
64253;BME280;50592;52.958;-7.470;2023-07-31T07:08:36;99137.47;;;14.87;100.00
64253;BME280;50592;52.958;-7.470;2023-07-31T07:11:02;99145.03;;;14.90;100.00
64253;BME280;50592;52.958;-7.470;2023-07-31T07:13:28;99125.59;;;14.90;100.00
64253;BME280;50592;52.958;-7.470;2023-07-31T07:15:53;99125.78;;;14.88;100.00
64253;BME280;50592;52.958;-7.470;2023-07-31T07:18:19;99124.38;;;14.85;100.00
64253;BME280;50592;52.958;-7.470;2023-07-31T07:20:49;99129.91;;;14.84;100.00
64253;BME280;50592;52.958;-7.470;2023-07-31T07:23:15;99135.22;;;14.84;100.00
64253;BME280;50592;52.958;-7.470;2023-07-31T07:25:42;99137.88;;;14.84;100.00
64253;BME280;50592;52.958;-7.470;2023-07-31T07:28:08;99125.16;;;14.86;100.00
64253;BME280;50592;52.958;-7.470;2023-07-31T07:30:34;99125.16;;;14.86;100.00
64253;BME280;50592;52.958;-7.470;2023-07-31T07:33:00;99118.84;;;14.87;100.00
64253;BME280;50592;52.958;-7.470;2023-07-31T07:35:26;99130.09;;;14.89;100.00
64253;BME280;50592;52.958;-7.470;2023-07-31T07:37:51;99129.06;;;14.90;100.00
64253;BME280;50592;52.958;-7.470;2023-07-31T07:40:17;99135.03;;;14.92;100.00
64253;BME280;50592;52.958;-7.470;2023-07-31T07:42:43;99139.94;;;14.95;100.00
64253;BME280;50592;52.958;-7.470;2023-07-31T07:45:09;99153.44;;;14.94;100.00
64253;BME280;50592;52.958;-7.470;2023-07-31T07:47:35;99147.91;;;14.95;100.00
64253;BME280;50592;52.958;-7.470;2023-07-31T07:50:01;99150.97;;;14.92;100.00
64253;BME280;50592;52.958;-7.470;2023-07-31T07:52:27;99148.13;;;14.94;100.00
64253;BME280;50592;52.958;-7.470;2023-07-31T07:54:53;99139.09;;;14.95;100.00
64253;BME280;50592;52.958;-7.470;2023-07-31T07:57:19;99135.63;;;14.94;100.00
64253;BME280;50592;52.958;-7.470;2023-07-31T07:59:45;99122.31;;;14.94;100.00
64253;BME280;50592;52.958;-7.470;2023-07-31T08:02:10;99112.28;;;14.96;100.00
64253;BME280;50592;52.958;-7.470;2023-07-31T08:04:37;99117.19;;;14.99;100.00
64253;BME280;50592;52.958;-7.470;2023-07-31T08:07:03;99121.06;;;15.04;100.00
64253;BME280;50592;52.958;-7.470;2023-07-31T08:09:29;99133.97;;;15.07;100.00
64253;BME280;50592;52.958;-7.470;2023-07-31T08:11:54;99136.63;;;15.07;100.00
64253;BME280;50592;52.958;-7.470;2023-07-31T08:14:22;99131.28;;;15.07;100.00
64253;BME280;50592;52.958;-7.470;2023-07-31T08:16:48;99123.94;;;15.09;100.00
64253;BME280;50592;52.958;-7.470;2023-07-31T08:19:14;99126.19;;;15.12;100.00
64253;BME280;50592;52.958;-7.470;2023-07-31T08:21:39;99132.13;;;15.14;100.00
64253;BME280;50592;52.958;-7.470;2023-07-31T08:24:05;99115.94;;;15.16;100.00
64253;BME280;50592;52.958;-7.470;2023-07-31T08:26:31;99117.38;;;15.18;100.00
64253;BME280;50592;52.958;-7.470;2023-07-31T08:28:57;99122.88;;;15.23;100.00
64253;BME280;50592;52.958;-7.470;2023-07-31T08:31:24;99128.22;;;15.30;100.00
64253;BME280;50592;52.958;-7.470;2023-07-31T08:33:50;99125.34;;;15.32;100.00
64253;BME280;50592;52.958;-7.470;2023-07-31T08:36:16;99129.63;;;15.33;100.00
64253;BME280;50592;52.958;-7.470;2023-07-31T08:38:41;99133.91;;;15.34;100.00
64253;BME280;50592;52.958;-7.470;2023-07-31T08:41:07;99137.81;;;15.38;100.00
64253;BME280;50592;52.958;-7.470;2023-07-31T08:43:33;99136.34;;;15.42;100.00
64253;BME280;50592;52.958;-7.470;2023-07-31T08:45:59;99138.59;;;15.45;100.00
64253;BME280;50592;52.958;-7.470;2023-07-31T08:48:26;99126.75;;;15.41;100.00
64253;BME280;50592;52.958;-7.470;2023-07-31T08:50:52;99135.75;;;15.40;100.00
64253;BME280;50592;52.958;-7.470;2023-07-31T08:53:18;99128.78;;;15.39;100.00
64253;BME280;50592;52.958;-7.470;2023-07-31T08:55:44;99130.03;;;15.36;100.00
64253;BME280;50592;52.958;-7.470;2023-07-31T08:58:12;99133.28;;;15.38;100.00
64253;BME280;50592;52.958;-7.470;2023-07-31T09:00:39;99115.91;;;15.36;100.00
64253;BME280;50592;52.958;-7.470;2023-07-31T09:03:11;99117.31;;;15.38;100.00
64253;BME280;50592;52.958;-7.470;2023-07-31T09:05:42;99122.63;;;15.38;100.00
64253;BME280;50592;52.958;-7.470;2023-07-31T09:08:09;99134.31;;;15.37;100.00
64253;BME280;50592;52.958;-7.470;2023-07-31T09:10:41;99133.50;;;15.37;100.00
64253;BME280;50592;52.958;-7.470;2023-07-31T09:13:08;99127.38;;;15.36;100.00
64253;BME280;50592;52.958;-7.470;2023-07-31T09:15:34;99132.06;;;15.34;100.00
64253;BME280;50592;52.958;-7.470;2023-07-31T09:18:02;99131.25;;;15.34;100.00
64253;BME280;50592;52.958;-7.470;2023-07-31T09:20:28;99125.72;;;15.35;100.00
64253;BME280;50592;52.958;-7.470;2023-07-31T09:22:54;99103.78;;;15.40;100.00
64253;BME280;50592;52.958;-7.470;2023-07-31T09:25:25;99099.50;;;15.46;100.00
64253;BME280;50592;52.958;-7.470;2023-07-31T09:30:22;99107.06;;;15.49;100.00
64253;BME280;50592;52.958;-7.470;2023-07-31T09:32:50;99100.47;;;15.52;100.00
64253;BME280;50592;52.958;-7.470;2023-07-31T09:37:55;99104.75;;;15.59;100.00
64253;BME280;50592;52.958;-7.470;2023-07-31T09:40:38;99102.09;;;15.59;100.00
64253;BME280;50592;52.958;-7.470;2023-07-31T09:43:06;99106.41;;;15.60;100.00
64253;BME280;50592;52.958;-7.470;2023-07-31T09:45:40;99118.06;;;15.66;100.00
64253;BME280;50592;52.958;-7.470;2023-07-31T09:48:08;99108.66;;;15.63;100.00
64253;BME280;50592;52.958;-7.470;2023-07-31T09:50:39;99110.47;;;15.70;100.00
64253;BME280;50592;52.958;-7.470;2023-07-31T09:53:06;99101.63;;;15.76;100.00
64253;BME280;50592;52.958;-7.470;2023-07-31T09:55:33;99094.19;;;15.85;100.00
64253;BME280;50592;52.958;-7.470;2023-07-31T09:57:59;99101.34;;;15.91;100.00
64253;BME280;50592;52.958;-7.470;2023-07-31T10:00:30;99096.63;;;16.00;100.00
64253;BME280;50592;52.958;-7.470;2023-07-31T10:02:59;99096.59;;;16.07;100.00
64253;BME280;50592;52.958;-7.470;2023-07-31T10:05:37;99100.84;;;16.15;100.00
64253;BME280;50592;52.958;-7.470;2023-07-31T10:08:05;99098.56;;;16.18;100.00
64253;BME280;50592;52.958;-7.470;2023-07-31T10:10:32;99108.97;;;16.27;100.00
64253;BME280;50592;52.958;-7.470;2023-07-31T10:13:01;99099.34;;;16.26;100.00
64253;BME280;50592;52.958;-7.470;2023-07-31T10:15:28;99098.13;;;16.21;100.00
64253;BME280;50592;52.958;-7.470;2023-07-31T10:17:55;99101.84;;;16.20;100.00
64253;BME280;50592;52.958;-7.470;2023-07-31T10:20:22;99110.03;;;16.19;100.00
64253;BME280;50592;52.958;-7.470;2023-07-31T10:22:48;99106.13;;;16.21;100.00
64253;BME280;50592;52.958;-7.470;2023-07-31T10:25:15;99106.72;;;16.23;100.00
64253;BME280;50592;52.958;-7.470;2023-07-31T10:27:42;99102.66;;;16.21;100.00
64253;BME280;50592;52.958;-7.470;2023-07-31T10:30:14;99100.00;;;16.21;100.00
64253;BME280;50592;52.958;-7.470;2023-07-31T10:32:41;99101.00;;;16.20;100.00
64253;BME280;50592;52.958;-7.470;2023-07-31T10:35:09;99098.69;;;16.30;100.00
64253;BME280;50592;52.958;-7.470;2023-07-31T10:40:16;99095.28;;;16.48;100.00
64253;BME280;50592;52.958;-7.470;2023-07-31T10:45:11;99080.81;;;16.63;100.00
64253;BME280;50592;52.958;-7.470;2023-07-31T10:47:44;99080.09;;;16.74;100.00
64253;BME280;50592;52.958;-7.470;2023-07-31T10:50:12;99091.28;;;16.83;100.00
64253;BME280;50592;52.958;-7.470;2023-07-31T10:52:38;99073.81;;;16.88;100.00
64253;BME280;50592;52.958;-7.470;2023-07-31T10:57:49;99067.53;;;17.01;100.00
64253;BME280;50592;52.958;-7.470;2023-07-31T11:05:50;99061.41;;;17.56;100.00
64253;BME280;50592;52.958;-7.470;2023-07-31T11:08:26;99059.00;;;17.67;100.00
64253;BME280;50592;52.958;-7.470;2023-07-31T11:16:10;99045.50;;;17.61;100.00
64253;BME280;50592;52.958;-7.470;2023-07-31T11:18:39;99049.81;;;17.63;100.00
64253;BME280;50592;52.958;-7.470;2023-07-31T11:21:06;99053.63;;;17.55;100.00
64253;BME280;50592;52.958;-7.470;2023-07-31T11:23:32;99037.00;;;17.53;100.00
64253;BME280;50592;52.958;-7.470;2023-07-31T11:26:01;99044.78;;;17.54;100.00
64253;BME280;50592;52.958;-7.470;2023-07-31T11:28:31;99039.81;;;17.58;100.00
64253;BME280;50592;52.958;-7.470;2023-07-31T11:30:58;99051.66;;;17.62;100.00
64253;BME280;50592;52.958;-7.470;2023-07-31T11:33:24;99044.94;;;17.59;100.00
64253;BME280;50592;52.958;-7.470;2023-07-31T11:35:50;99043.44;;;17.64;100.00
64253;BME280;50592;52.958;-7.470;2023-07-31T11:38:31;99033.34;;;17.66;100.00
64253;BME280;50592;52.958;-7.470;2023-07-31T11:41:01;99035.03;;;17.60;100.00
64253;BME280;50592;52.958;-7.470;2023-07-31T11:43:28;99038.03;;;17.52;100.00
64253;BME280;50592;52.958;-7.470;2023-07-31T11:45:55;99035.28;;;17.40;100.00
64253;BME280;50592;52.958;-7.470;2023-07-31T11:48:29;99041.91;;;17.37;100.00
64253;BME280;50592;52.958;-7.470;2023-07-31T11:51:02;99035.81;;;17.30;100.00
64253;BME280;50592;52.958;-7.470;2023-07-31T11:53:33;99036.56;;;17.37;100.00
64253;BME280;50592;52.958;-7.470;2023-07-31T11:56:01;99038.94;;;17.45;100.00
64253;BME280;50592;52.958;-7.470;2023-07-31T11:58:31;99035.50;;;17.57;100.00
64253;BME280;50592;52.958;-7.470;2023-07-31T12:00:58;99029.13;;;17.58;100.00
64253;BME280;50592;52.958;-7.470;2023-07-31T12:03:25;99033.34;;;17.66;100.00
64253;BME280;50592;52.958;-7.470;2023-07-31T12:05:50;99025.81;;;17.75;100.00
64253;BME280;50592;52.958;-7.470;2023-07-31T12:08:21;99031.97;;;17.75;100.00
64253;BME280;50592;52.958;-7.470;2023-07-31T12:10:46;99028.72;;;17.73;100.00
64253;BME280;50592;52.958;-7.470;2023-07-31T12:13:26;99024.19;;;17.73;100.00
64253;BME280;50592;52.958;-7.470;2023-07-31T12:16:02;99012.91;;;17.71;100.00
64253;BME280;50592;52.958;-7.470;2023-07-31T12:18:34;99023.56;;;17.59;100.00
64253;BME280;50592;52.958;-7.470;2023-07-31T12:21:04;99018.91;;;17.36;100.00
64253;BME280;50592;52.958;-7.470;2023-07-31T12:23:32;99031.09;;;17.13;100.00
64253;BME280;50592;52.958;-7.470;2023-07-31T12:26:01;99017.72;;;16.94;100.00
64253;BME280;50592;52.958;-7.470;2023-07-31T12:28:27;99012.66;;;16.86;100.00
64253;BME280;50592;52.958;-7.470;2023-07-31T12:30:56;99011.94;;;16.97;100.00
64253;BME280;50592;52.958;-7.470;2023-07-31T12:33:22;99011.75;;;17.18;100.00
64253;BME280;50592;52.958;-7.470;2023-07-31T12:35:48;99008.44;;;17.34;100.00
64253;BME280;50592;52.958;-7.470;2023-07-31T12:38:14;99008.28;;;17.48;100.00
64253;BME280;50592;52.958;-7.470;2023-07-31T12:40:40;99004.44;;;17.75;100.00
64253;BME280;50592;52.958;-7.470;2023-07-31T12:43:08;99006.16;;;18.00;100.00
64253;BME280;50592;52.958;-7.470;2023-07-31T12:45:34;99001.19;;;18.15;100.00
64253;BME280;50592;52.958;-7.470;2023-07-31T12:48:01;98995.03;;;18.15;100.00
64253;BME280;50592;52.958;-7.470;2023-07-31T12:50:27;98986.50;;;18.06;100.00
64253;BME280;50592;52.958;-7.470;2023-07-31T12:52:53;98989.75;;;17.96;100.00
64253;BME280;50592;52.958;-7.470;2023-07-31T12:55:19;98994.25;;;17.83;100.00
64253;BME280;50592;52.958;-7.470;2023-07-31T12:57:46;99003.31;;;17.52;100.00
64253;BME280;50592;52.958;-7.470;2023-07-31T13:00:12;99006.81;;;17.33;100.00
64253;BME280;50592;52.958;-7.470;2023-07-31T13:02:39;99009.22;;;17.23;100.00
64253;BME280;50592;52.958;-7.470;2023-07-31T13:05:04;99007.22;;;17.18;100.00
64253;BME280;50592;52.958;-7.470;2023-07-31T13:07:31;98993.88;;;17.18;100.00